createdAt,value
2018-07-06T00:01:26.314Z,1.32
2018-07-06T00:04:06.226Z,1.37
2018-07-06T00:06:45.931Z,1.75
2018-07-06T00:09:25.687Z,1.60
2018-07-06T00:12:05.570Z,1.40
2018-07-06T00:14:45.451Z,1.80
2018-07-06T00:17:25.130Z,1.43
2018-07-06T00:20:05.098Z,1.40
2018-07-06T00:22:44.838Z,1.90
2018-07-06T00:25:24.631Z,1.57
2018-07-06T00:28:04.431Z,1.80
2018-07-06T00:30:44.271Z,2.10
2018-07-06T00:33:24.062Z,1.80
2018-07-06T00:36:03.882Z,1.25
2018-07-06T00:38:43.631Z,1.90
2018-07-06T00:41:24.098Z,1.50
2018-07-06T00:44:03.726Z,1.40
2018-07-06T00:46:43.557Z,1.80
2018-07-06T00:49:23.306Z,1.72
2018-07-06T00:52:03.275Z,1.70
2018-07-06T00:54:43.173Z,1.87
2018-07-06T00:57:22.968Z,1.95
2018-07-06T01:00:02.672Z,1.70
2018-07-06T01:02:42.383Z,1.70
2018-07-06T01:05:22.240Z,1.40
2018-07-06T01:08:01.952Z,2.03
2018-07-06T01:10:41.751Z,1.67
2018-07-06T01:13:21.462Z,1.40
2018-07-06T01:16:01.214Z,1.50
2018-07-06T01:18:41.270Z,1.87
2018-07-06T01:21:21.041Z,1.40
2018-07-06T01:24:00.629Z,2.00
2018-07-06T01:26:40.294Z,1.67
2018-07-06T01:29:20.108Z,1.47
2018-07-06T01:32:00.027Z,1.37
2018-07-06T01:34:39.695Z,1.60
2018-07-06T01:37:19.470Z,1.40
2018-07-06T01:39:59.271Z,1.73
2018-07-06T01:42:39.046Z,1.32
2018-07-06T01:45:18.993Z,1.40
2018-07-06T01:47:58.826Z,1.77
2018-07-06T01:50:38.594Z,1.50
2018-07-06T01:53:18.418Z,1.37
2018-07-06T02:02:54.824Z,1.87
2018-07-06T02:05:34.663Z,1.50
2018-07-06T02:08:14.199Z,1.50
2018-07-06T02:10:53.899Z,2.00
2018-07-06T02:13:33.658Z,1.40
2018-07-06T02:16:13.175Z,1.40
2018-07-06T02:18:52.999Z,1.63
2018-07-06T02:21:32.865Z,1.47
2018-07-06T02:24:12.595Z,1.45
2018-07-06T02:26:52.428Z,1.77
2018-07-06T02:29:32.197Z,1.50
2018-07-06T02:32:11.862Z,1.37
2018-07-06T02:34:51.665Z,1.55
2018-07-06T02:37:31.463Z,1.32
2018-07-06T02:40:11.256Z,1.40
2018-07-06T02:42:50.938Z,1.52
2018-07-06T02:45:30.748Z,1.30
2018-07-06T02:48:10.427Z,1.60
2018-07-06T02:50:50.173Z,1.70
2018-07-06T02:53:29.967Z,1.33
2018-07-06T02:56:09.677Z,1.45
2018-07-06T02:58:49.512Z,1.75
2018-07-06T03:01:29.435Z,1.30
2018-07-06T03:04:09.140Z,1.30
2018-07-06T03:06:48.959Z,1.50
2018-07-06T03:09:28.891Z,1.80
2018-07-06T03:12:08.683Z,1.50
2018-07-06T03:14:48.485Z,1.80
2018-07-06T03:17:28.365Z,1.10
2018-07-06T03:20:08.204Z,1.23
2018-07-06T03:22:47.828Z,1.63
2018-07-06T03:25:27.636Z,1.72
2018-07-06T03:28:07.533Z,1.93
2018-07-06T03:30:47.270Z,1.87
2018-07-06T03:33:27.247Z,1.53
2018-07-06T03:36:06.913Z,1.67
2018-07-06T03:38:50.638Z,1.73
2018-07-06T03:41:30.434Z,1.40
2018-07-06T03:44:10.083Z,1.93
2018-07-06T03:46:49.815Z,2.00
2018-07-06T03:49:29.676Z,2.20
2018-07-06T03:52:09.378Z,2.03
2018-07-06T03:54:49.269Z,1.90
2018-07-06T03:57:28.863Z,2.23
2018-07-06T04:00:08.551Z,2.13
2018-07-06T04:02:48.310Z,2.20
2018-07-06T04:05:28.257Z,1.90
2018-07-06T04:08:08.067Z,2.27
2018-07-06T04:10:47.795Z,2.23
2018-07-06T04:13:27.498Z,2.20
2018-07-06T04:16:07.577Z,2.50
2018-07-06T04:18:47.410Z,2.25
2018-07-06T04:21:27.147Z,2.17
2018-07-06T04:24:06.823Z,2.95
2018-07-06T04:26:46.782Z,2.73
2018-07-06T04:29:26.289Z,3.23
2018-07-06T04:32:06.198Z,3.10
2018-07-06T04:34:45.990Z,3.10
2018-07-06T04:37:25.778Z,2.73
2018-07-06T04:40:05.635Z,2.87
2018-07-06T04:42:45.328Z,2.87
2018-07-06T04:45:25.120Z,3.08
2018-07-06T04:48:04.962Z,3.00
2018-07-06T04:50:44.744Z,3.33
2018-07-06T04:53:24.540Z,3.35
2018-07-06T04:56:04.371Z,3.20
2018-07-06T04:58:44.222Z,3.65
2018-07-06T05:01:23.821Z,3.70
2018-07-06T05:04:03.494Z,3.63
2018-07-06T05:06:43.342Z,3.90
2018-07-06T05:09:23.196Z,3.37
2018-07-06T05:12:02.828Z,3.73
2018-07-06T05:14:42.490Z,3.70
2018-07-06T05:17:22.304Z,3.73
2018-07-06T05:20:04.793Z,4.25
2018-07-06T05:22:44.650Z,3.40
2018-07-06T05:25:24.446Z,3.87
2018-07-06T05:28:04.260Z,4.30
2018-07-06T05:30:43.826Z,3.80
2018-07-06T05:33:23.683Z,4.22
2018-07-06T05:36:03.638Z,3.90
2018-07-06T05:38:43.343Z,4.57
2018-07-06T05:41:23.064Z,4.27
2018-07-06T05:44:02.843Z,4.10
2018-07-06T05:46:42.647Z,4.07
2018-07-06T05:49:22.396Z,3.73
2018-07-06T05:52:02.182Z,4.20
2018-07-06T05:54:42.120Z,4.23
2018-07-06T05:57:22.189Z,4.50
2018-07-06T06:00:01.944Z,5.15
2018-07-06T06:02:41.832Z,4.67
2018-07-06T06:05:21.427Z,5.40
2018-07-06T06:07:48.694Z,4.87
2018-07-06T06:10:17.475Z,5.58
2018-07-06T06:12:45.991Z,6.27
2018-07-06T06:15:14.489Z,5.58
2018-07-06T06:17:43.019Z,5.50
2018-07-06T06:20:15.178Z,5.83
2018-07-06T06:22:43.696Z,5.10
2018-07-06T06:25:12.602Z,6.10
2018-07-06T06:27:41.102Z,5.67
2018-07-06T06:30:09.921Z,5.97
2018-07-06T06:32:39.163Z,5.57
2018-07-06T06:35:07.699Z,5.60
2018-07-06T06:37:36.219Z,6.03
2018-07-06T06:40:04.776Z,5.10
2018-07-06T06:42:33.703Z,5.23
2018-07-06T06:45:02.234Z,5.25
2018-07-06T06:47:30.864Z,5.30
2018-07-06T06:49:59.458Z,5.10
2018-07-06T06:52:27.982Z,5.15
2018-07-06T06:54:56.661Z,4.72
2018-07-06T06:57:25.398Z,5.30
2018-07-06T06:59:53.986Z,5.03
2018-07-06T07:02:22.579Z,5.08
2018-07-06T07:04:51.223Z,5.47
2018-07-06T07:07:19.843Z,4.80
2018-07-06T07:09:48.583Z,5.00
2018-07-06T07:12:17.118Z,4.28
2018-07-06T07:14:45.703Z,4.83
2018-07-06T07:17:14.609Z,4.08
2018-07-06T07:19:43.154Z,5.20
2018-07-06T07:22:11.770Z,4.55
2018-07-06T07:24:40.294Z,4.05
2018-07-06T07:27:08.807Z,4.33
2018-07-06T07:29:37.402Z,3.87
2018-07-06T07:32:05.946Z,3.70
2018-07-06T07:34:34.395Z,3.62
2018-07-06T07:37:02.894Z,3.80
2018-07-06T07:39:31.582Z,4.08
2018-07-06T07:42:00.175Z,3.80
2018-07-06T07:44:28.662Z,3.83
2018-07-06T07:46:57.179Z,4.12
2018-07-06T07:49:25.703Z,3.60
2018-07-06T07:52:08.987Z,4.20
2018-07-06T07:54:48.406Z,4.22
2018-07-06T07:57:16.990Z,4.20
2018-07-06T07:59:45.602Z,3.87
2018-07-06T08:02:14.047Z,3.65
2018-07-06T08:04:42.747Z,4.30
2018-07-06T08:07:11.514Z,4.45
2018-07-06T08:09:40.312Z,4.08
2018-07-06T08:12:08.774Z,4.10
2018-07-06T08:14:37.823Z,3.33
2018-07-06T08:17:06.436Z,3.85
2018-07-06T08:19:35.305Z,3.90
2018-07-06T08:22:03.841Z,3.00
2018-07-06T08:24:32.327Z,3.55
2018-07-06T08:27:00.886Z,3.30
2018-07-06T08:29:29.390Z,3.27
2018-07-06T08:31:57.890Z,3.05
2018-07-06T08:34:37.562Z,3.08
2018-07-06T08:37:29.951Z,3.02
2018-07-06T08:39:59.164Z,3.00
2018-07-06T08:42:29.120Z,3.15
2018-07-06T08:44:58.656Z,2.90
2018-07-06T08:47:27.263Z,4.05
2018-07-06T08:49:56.797Z,2.92
2018-07-06T08:52:25.310Z,2.77
2018-07-06T08:54:54.126Z,2.75
2018-07-06T08:57:23.682Z,2.75
2018-07-06T08:59:52.903Z,3.60
2018-07-06T09:02:21.858Z,2.72
2018-07-06T09:04:51.131Z,2.85
2018-07-06T09:07:19.613Z,2.60
2018-07-06T09:09:48.198Z,2.85
2018-07-06T09:12:16.687Z,2.47
2018-07-06T09:14:45.119Z,2.83
2018-07-06T09:17:14.997Z,2.75
2018-07-06T09:19:44.035Z,3.55
2018-07-06T09:22:13.087Z,2.90
2018-07-06T09:24:42.054Z,3.17
2018-07-06T09:27:10.783Z,3.42
2018-07-06T09:29:39.329Z,3.87
2018-07-06T09:32:08.450Z,3.80
2018-07-06T09:34:37.210Z,4.62
2018-07-06T09:37:05.837Z,4.55
2018-07-06T09:39:34.506Z,4.85
2018-07-06T09:42:03.509Z,4.10
2018-07-06T09:44:32.068Z,2.90
2018-07-06T09:47:00.678Z,3.30
2018-07-06T09:49:29.175Z,2.55
2018-07-06T09:51:58.319Z,3.08
2018-07-06T09:54:26.895Z,3.20
2018-07-06T09:56:55.439Z,3.62
2018-07-06T09:59:24.079Z,3.37
2018-07-06T10:01:52.991Z,3.83
2018-07-06T10:04:21.574Z,3.98
2018-07-06T10:06:50.166Z,4.92
2018-07-06T10:09:18.634Z,4.10
2018-07-06T10:11:47.186Z,4.78
2018-07-06T10:14:15.659Z,4.33
2018-07-06T10:16:44.295Z,5.12
2018-07-06T10:19:12.838Z,4.92
2018-07-06T10:21:41.374Z,4.95
2018-07-06T10:24:09.898Z,4.90
2018-07-06T10:26:38.497Z,6.08
2018-07-06T10:29:20.128Z,6.03
2018-07-06T10:32:26.426Z,5.47
2018-07-06T10:34:55.174Z,5.20
2018-07-06T10:37:24.035Z,4.58
2018-07-06T10:39:56.793Z,4.87
2018-07-06T10:42:25.211Z,5.03
2018-07-06T10:44:53.739Z,5.50
2018-07-06T10:47:22.259Z,5.22
2018-07-06T10:49:50.696Z,7.10
2018-07-06T10:52:19.345Z,6.50
2018-07-06T10:54:48.487Z,7.00
2018-07-06T10:57:17.116Z,6.87
2018-07-06T10:59:45.590Z,6.92
2018-07-06T11:02:14.022Z,8.35
2018-07-06T11:04:42.611Z,7.87
2018-07-06T11:07:11.357Z,8.18
2018-07-06T11:09:39.978Z,7.17
2018-07-06T11:12:08.456Z,8.20
2018-07-06T11:14:36.966Z,8.68
2018-07-06T11:17:05.589Z,9.85
2018-07-06T11:19:34.262Z,8.23
2018-07-06T11:22:02.812Z,8.93
2018-07-06T11:24:31.524Z,9.13
2018-07-06T11:27:00.191Z,9.43
2018-07-06T11:29:28.712Z,8.88
2018-07-06T11:31:57.226Z,8.20
2018-07-06T11:34:25.867Z,9.25
2018-07-06T11:36:54.345Z,9.23
2018-07-06T11:39:22.807Z,8.93
2018-07-06T11:41:51.482Z,9.40
2018-07-06T11:44:20.011Z,7.75
2018-07-06T11:46:48.430Z,8.03
2018-07-06T11:49:16.942Z,8.00
2018-07-06T11:51:45.599Z,10.23
2018-07-06T11:54:14.236Z,9.98
2018-07-06T11:56:42.683Z,8.53
2018-07-06T11:59:11.205Z,9.10
2018-07-06T12:01:39.635Z,8.78
2018-07-06T12:04:08.288Z,9.00
2018-07-06T12:06:36.724Z,8.45
2018-07-06T12:09:05.955Z,8.50
2018-07-06T12:11:34.582Z,9.95
2018-07-06T12:14:03.327Z,9.48
2018-07-06T12:16:32.063Z,9.65
2018-07-06T12:19:00.568Z,8.03
2018-07-06T12:21:29.128Z,8.20
2018-07-06T12:23:57.635Z,9.85
2018-07-06T12:26:26.110Z,9.90
2018-07-06T12:28:54.589Z,9.40
2018-07-06T12:31:23.138Z,9.88
2018-07-06T12:33:51.564Z,10.63
2018-07-06T12:36:20.090Z,9.50
2018-07-06T12:38:48.830Z,10.40
2018-07-06T12:41:17.456Z,8.78
2018-07-06T12:43:46.115Z,10.20
2018-07-06T12:46:14.978Z,9.35
2018-07-06T12:48:43.579Z,9.68
2018-07-06T12:51:12.136Z,8.93
2018-07-06T12:53:40.726Z,11.20
2018-07-06T12:56:09.251Z,10.10
2018-07-06T12:58:37.778Z,10.08
2018-07-06T13:01:06.491Z,9.10
2018-07-06T13:03:35.026Z,8.43
2018-07-06T13:06:03.640Z,8.53
2018-07-06T13:08:32.289Z,8.20
2018-07-06T13:11:00.855Z,8.30
2018-07-06T13:13:29.287Z,9.10
2018-07-06T13:15:57.904Z,8.38
2018-07-06T13:18:26.673Z,6.67
2018-07-06T13:20:55.142Z,7.97
2018-07-06T13:23:23.591Z,7.58
2018-07-06T13:25:52.195Z,8.08
2018-07-06T13:28:20.901Z,7.85
2018-07-06T13:30:49.454Z,7.67
2018-07-06T13:33:18.051Z,7.03
2018-07-06T13:35:46.576Z,7.33
2018-07-06T13:38:15.147Z,7.25
2018-07-06T13:40:45.010Z,6.72
2018-07-06T13:43:13.841Z,7.37
2018-07-06T13:45:42.398Z,7.37
2018-07-06T13:48:10.985Z,6.53
2018-07-06T13:50:39.499Z,6.45
2018-07-06T13:53:08.176Z,22.07
2018-07-06T13:55:36.743Z,6.28
2018-07-06T13:58:05.341Z,6.00
2018-07-06T14:00:34.040Z,8.23
2018-07-06T14:03:02.578Z,6.17
2018-07-06T14:05:31.102Z,5.55
2018-07-06T14:07:59.678Z,6.12
2018-07-06T14:10:28.158Z,5.67
2018-07-06T14:12:56.620Z,6.62
2018-07-06T14:15:25.134Z,6.78
2018-07-06T14:17:53.776Z,5.40
2018-07-06T14:20:22.273Z,5.60
2018-07-06T14:22:50.874Z,6.62
2018-07-06T14:25:19.505Z,5.95
2018-07-06T14:27:48.181Z,6.47
2018-07-06T14:30:16.696Z,7.10
2018-07-06T14:32:45.311Z,6.28
2018-07-06T14:35:13.944Z,7.10
2018-07-06T14:37:42.716Z,8.05
2018-07-06T14:40:11.290Z,6.12
2018-07-06T14:42:39.927Z,5.65
2018-07-06T14:45:08.592Z,6.53
2018-07-06T14:47:37.130Z,5.97
2018-07-06T14:50:05.719Z,5.42
2018-07-06T14:52:34.279Z,6.17
2018-07-06T14:55:03.094Z,5.62
2018-07-06T14:57:31.623Z,6.70
2018-07-06T15:00:00.660Z,5.72
2018-07-06T15:02:29.195Z,6.55
2018-07-06T15:04:58.096Z,5.60
2018-07-06T15:07:26.656Z,5.33
2018-07-06T15:09:55.224Z,5.50
2018-07-06T15:12:23.811Z,4.72
2018-07-06T15:14:52.491Z,5.37
2018-07-06T15:17:20.931Z,5.20
2018-07-06T15:19:49.454Z,5.20
2018-07-06T15:22:18.014Z,4.78
2018-07-06T15:24:46.670Z,4.62
2018-07-06T15:27:15.424Z,6.60
2018-07-06T15:29:43.970Z,5.10
2018-07-06T15:32:12.542Z,3.92
2018-07-06T15:34:41.231Z,4.78
2018-07-06T15:37:09.852Z,5.40
2018-07-06T15:39:42.158Z,4.42
2018-07-06T15:42:10.811Z,4.33
2018-07-06T15:44:39.589Z,5.15
2018-07-06T15:47:08.117Z,4.45
2018-07-06T15:49:36.760Z,4.87
2018-07-06T15:52:05.191Z,5.47
2018-07-06T15:54:33.711Z,5.85
2018-07-06T15:57:02.255Z,5.17
2018-07-06T15:59:30.806Z,6.20
2018-07-06T16:01:59.708Z,5.75
2018-07-06T16:04:28.213Z,5.78
2018-07-06T16:06:56.688Z,5.20
2018-07-06T16:09:25.322Z,5.08
2018-07-06T16:11:54.787Z,5.42
2018-07-06T16:14:23.295Z,6.22
2018-07-06T16:16:51.746Z,5.90
2018-07-06T16:19:20.598Z,4.92
2018-07-06T16:21:49.174Z,5.60
2018-07-06T16:24:17.715Z,5.67
2018-07-06T16:26:46.179Z,5.65
2018-07-06T16:29:14.667Z,5.70
2018-07-06T16:31:43.184Z,5.72
2018-07-06T16:34:11.723Z,5.80
2018-07-06T16:36:40.220Z,5.53
2018-07-06T16:39:08.826Z,5.62
2018-07-06T16:41:37.282Z,6.17
2018-07-06T16:44:06.049Z,5.87
2018-07-06T16:46:34.531Z,5.83
2018-07-06T16:49:03.018Z,5.90
2018-07-06T16:51:32.249Z,5.80
2018-07-06T16:54:00.828Z,5.83
2018-07-06T16:56:29.671Z,5.67
2018-07-06T16:58:58.360Z,5.28
2018-07-06T17:01:26.920Z,5.28
2018-07-06T17:03:55.783Z,6.08
2018-07-06T17:06:24.235Z,5.17
2018-07-06T17:08:52.760Z,4.85
2018-07-06T17:11:21.364Z,4.58
2018-07-06T17:13:50.284Z,4.80
2018-07-06T17:16:19.171Z,5.17
2018-07-06T17:18:47.639Z,4.28
2018-07-06T17:21:16.226Z,4.53
2018-07-06T17:23:44.744Z,4.25
2018-07-06T17:26:17.599Z,4.00
2018-07-06T17:28:46.111Z,4.28
2018-07-06T17:31:14.792Z,3.55
2018-07-06T17:33:43.400Z,3.77
2018-07-06T17:36:11.959Z,3.22
2018-07-06T17:38:40.548Z,3.40
2018-07-06T17:41:09.132Z,3.22
2018-07-06T17:43:37.759Z,4.15
2018-07-06T17:46:06.275Z,3.15
2018-07-06T17:48:34.820Z,3.75
2018-07-06T17:51:03.549Z,3.58
2018-07-06T17:53:32.419Z,3.70
2018-07-06T17:56:01.021Z,4.28
2018-07-06T17:58:29.503Z,4.12
2018-07-06T18:00:58.579Z,4.47
2018-07-06T18:03:27.125Z,4.65
2018-07-06T18:05:55.623Z,4.35
2018-07-06T18:08:24.069Z,5.22
2018-07-06T18:10:52.665Z,5.00
2018-07-06T18:13:21.277Z,5.15
2018-07-06T18:15:49.831Z,5.85
2018-07-06T18:18:18.509Z,5.25
2018-07-06T18:20:47.138Z,5.53
2018-07-06T18:23:15.912Z,5.00
2018-07-06T18:25:44.459Z,5.40
2018-07-06T18:28:13.329Z,5.60
2018-07-06T18:30:41.784Z,5.45
2018-07-06T18:33:10.321Z,5.37
2018-07-06T18:35:38.844Z,6.22
2018-07-06T18:38:07.459Z,6.42
2018-07-06T18:40:35.943Z,5.70
2018-07-06T18:43:04.496Z,6.00
2018-07-06T18:45:33.236Z,5.95
2018-07-06T18:48:01.792Z,5.87
2018-07-06T18:50:30.317Z,5.30
2018-07-06T18:52:58.963Z,5.30
2018-07-06T18:55:27.548Z,5.95
2018-07-06T18:57:55.995Z,6.20
2018-07-06T19:00:24.596Z,5.08
2018-07-06T19:02:53.098Z,5.50
2018-07-06T19:05:21.570Z,5.70
2018-07-06T19:07:50.046Z,6.00
2018-07-06T19:10:18.575Z,5.72
2018-07-06T19:12:47.363Z,5.67
2018-07-06T19:15:15.911Z,5.90
2018-07-06T19:17:44.357Z,6.50
2018-07-06T19:20:12.879Z,4.80
2018-07-06T19:22:41.422Z,5.33
2018-07-06T19:25:09.983Z,5.10
2018-07-06T19:27:38.976Z,6.20
2018-07-06T19:30:07.538Z,6.50
2018-07-06T19:32:36.167Z,8.38
2018-07-06T19:35:04.718Z,8.85
2018-07-06T19:37:33.263Z,7.97
2018-07-06T19:40:01.687Z,7.50
2018-07-06T19:42:30.235Z,8.78
2018-07-06T19:44:58.718Z,7.47
2018-07-06T19:47:27.196Z,7.12
2018-07-06T19:49:55.678Z,6.62
2018-07-06T19:52:24.158Z,6.85
2018-07-06T19:54:52.894Z,6.67
2018-07-06T19:57:21.382Z,7.28
2018-07-06T19:59:49.963Z,6.67
2018-07-06T20:02:18.506Z,6.67
2018-07-06T20:04:47.107Z,6.15
2018-07-06T20:07:15.766Z,6.60
2018-07-06T20:09:44.267Z,6.33
2018-07-06T20:12:12.939Z,6.37
2018-07-06T20:14:41.687Z,7.45
2018-07-06T20:17:10.318Z,8.30
2018-07-06T20:19:38.807Z,7.30
2018-07-06T20:22:07.335Z,7.35
2018-07-06T20:24:35.866Z,7.22
2018-07-06T20:27:04.523Z,8.20
2018-07-06T20:29:33.302Z,7.95
2018-07-06T20:32:01.844Z,7.83
2018-07-06T20:34:30.762Z,8.13
2018-07-06T20:36:59.387Z,7.28
2018-07-06T20:39:27.870Z,7.90
2018-07-06T20:41:56.347Z,7.60
2018-07-06T20:44:24.861Z,8.73
2018-07-06T20:46:53.430Z,8.60
2018-07-06T20:49:22.044Z,8.65
2018-07-06T20:51:50.787Z,8.23
2018-07-06T20:54:19.351Z,8.25
2018-07-06T20:56:47.838Z,9.15
2018-07-06T20:59:16.477Z,8.28
2018-07-06T21:01:45.027Z,8.73
2018-07-06T21:04:13.676Z,9.10
2018-07-06T21:06:42.150Z,8.55
2018-07-06T21:09:10.679Z,9.00
2018-07-06T21:11:39.561Z,8.30
2018-07-06T21:14:08.042Z,7.80
2018-07-06T21:16:36.503Z,7.83
2018-07-06T21:19:05.027Z,8.00
2018-07-06T21:21:33.630Z,7.60
2018-07-06T21:24:02.298Z,7.97
2018-07-06T21:26:30.996Z,5.72
2018-07-06T21:28:59.521Z,5.15
2018-07-06T21:31:28.051Z,4.08
2018-07-06T21:33:56.592Z,4.05
2018-07-06T21:36:25.206Z,3.70
2018-07-06T21:38:53.767Z,4.03
2018-07-06T21:41:22.334Z,3.30
2018-07-06T21:43:51.079Z,3.35
2018-07-06T21:46:19.943Z,2.95
2018-07-06T21:48:48.398Z,2.58
2018-07-06T21:51:16.894Z,1.92
2018-07-06T21:53:45.387Z,1.92
2018-07-06T21:56:13.907Z,1.80
2018-07-06T21:58:42.408Z,1.10
2018-07-06T22:01:10.941Z,0.95
2018-07-06T22:03:39.545Z,1.12
2018-07-06T22:06:08.102Z,0.90
2018-07-06T22:08:36.758Z,1.42
2018-07-06T22:11:05.416Z,1.57
2018-07-06T22:13:33.992Z,0.30
2018-07-06T22:16:02.555Z,0.65
2018-07-06T22:18:31.087Z,0.70
2018-07-06T22:20:59.804Z,0.93
2018-07-06T22:23:28.751Z,0.53
2018-07-06T22:25:57.266Z,0.93
2018-07-06T22:28:25.759Z,0.50
2018-07-06T22:30:54.239Z,0.50
2018-07-06T22:33:22.803Z,0.40
2018-07-06T22:35:51.215Z,0.75
2018-07-06T22:38:19.837Z,0.80
2018-07-06T22:40:48.490Z,0.60
2018-07-06T22:43:16.979Z,0.30
2018-07-06T22:45:45.456Z,0.78
2018-07-06T22:48:13.879Z,0.40
2018-07-06T22:50:42.391Z,0.68
2018-07-06T22:53:10.931Z,0.37
2018-07-06T22:55:39.489Z,0.40
2018-07-06T22:58:08.123Z,0.60
2018-07-06T23:00:36.740Z,0.65
2018-07-06T23:03:06.199Z,0.45
2018-07-06T23:05:34.885Z,0.30
2018-07-06T23:08:03.352Z,0.70
2018-07-06T23:10:31.967Z,0.20
2018-07-06T23:13:00.531Z,0.45
2018-07-06T23:15:29.096Z,0.37
2018-07-06T23:17:57.663Z,0.40
2018-07-06T23:20:26.107Z,0.30
2018-07-06T23:23:00.998Z,0.33
2018-07-06T23:25:29.814Z,0.30
2018-07-06T23:27:58.399Z,0.40
2018-07-06T23:30:27.251Z,0.50
2018-07-06T23:32:56.764Z,0.62
2018-07-06T23:35:25.433Z,0.30
2018-07-06T23:37:54.140Z,0.50
2018-07-06T23:40:22.802Z,0.30
2018-07-06T23:42:51.299Z,0.70
2018-07-06T23:45:20.240Z,0.53
2018-07-06T23:47:48.788Z,0.30
2018-07-06T23:50:17.762Z,0.20
2018-07-06T23:52:46.847Z,0.33
2018-07-06T23:55:15.840Z,0.30
2018-07-06T23:57:44.734Z,0.45
